Time;durP1;ratioP1;P1;durP2;ratioP2;P2;SDS_P1;SDS_P2;PMS_P1;PMS_P2;Temp;Humidity;BMP_temperature;BMP_pressure;BME280_temperature;BME280_humidity;BME280_pressure;Samples;Min_cycle;Max_cycle;Signal;HPM_P1;HPM_P2
2021/12/18 00:02:50;;;;;;;15.40;4.30;;;;;;;0.40;100.00;101529.64;102316;1310;74045;-65
2021/12/18 00:05:38;;;;;;;15.10;5.00;;;;;;;0.40;100.00;101533.30;102469;1311;68402;-65
2021/12/18 00:08:26;;;;;;;20.40;4.80;;;;;;;0.42;100.00;101536.09;102553;1313;74526;-65
2021/12/18 00:11:15;;;;;;;16.90;4.80;;;;;;;0.43;100.00;101528.73;102179;1310;59432;-65
2021/12/18 00:14:02;;;;;;;13.80;4.10;;;;;;;0.43;100.00;101527.33;102566;1314;61025;-65
2021/12/18 00:16:50;;;;;;;13.90;4.60;;;;;;;0.41;100.00;101526.65;102289;1311;71749;-65
2021/12/18 00:19:39;;;;;;;16.30;4.40;;;;;;;0.40;100.00;101527.89;102397;1316;69255;-65
2021/12/18 00:22:30;;;;;;;18.20;5.40;;;;;;;0.38;100.00;101526.16;102306;1310;73108;-65
2021/12/18 00:25:21;;;;;;;19.60;5.50;;;;;;;0.36;100.00;101526.20;102177;1314;59283;-65
2021/12/18 00:28:10;;;;;;;17.70;5.70;;;;;;;0.37;100.00;101529.14;101906;1310;59917;-65
2021/12/18 00:30:57;;;;;;;15.50;5.20;;;;;;;0.36;100.00;101529.85;102345;1311;71533;-65
2021/12/18 00:33:45;;;;;;;12.20;4.00;;;;;;;0.35;100.00;101532.49;102312;1311;68804;-65
2021/12/18 00:36:35;;;;;;;16.00;4.50;;;;;;;0.32;100.00;101534.45;102308;1314;72821;-65
2021/12/18 00:39:23;;;;;;;12.10;4.60;;;;;;;0.29;100.00;101541.45;102580;1310;59311;-65
2021/12/18 00:45:19;;;;;;;13.30;5.50;;;;;;;0.24;100.00;101552.16;102014;1310;71783;-65
2021/12/18 00:48:08;;;;;;;17.30;6.20;;;;;;;0.24;100.00;101558.45;102358;1314;68446;-65
2021/12/18 00:50:57;;;;;;;13.10;5.00;;;;;;;0.28;100.00;101554.73;102451;1311;72886;-65
2021/12/18 00:53:48;;;;;;;10.20;4.50;;;;;;;0.33;100.00;101562.02;102382;1314;59310;-65
2021/12/18 00:56:38;;;;;;;13.10;5.00;;;;;;;0.38;100.00;101559.52;102598;1310;60341;-65
2021/12/18 00:59:27;;;;;;;11.90;4.60;;;;;;;0.43;100.00;101556.83;102549;1310;71761;-65
2021/12/18 01:02:15;;;;;;;11.90;4.10;;;;;;;0.53;100.00;101555.50;102595;1311;66416;-65
2021/12/18 01:05:06;;;;;;;11.20;4.20;;;;;;;0.59;100.00;101548.26;102939;1310;73986;-65
2021/12/18 01:07:56;;;;;;;12.60;4.50;;;;;;;0.63;100.00;101544.73;102575;1310;59359;-65
2021/12/18 01:22:42;;;;;;;11.40;4.30;;;;;;;0.82;100.00;101545.16;102287;1317;68507;-65
2021/12/18 01:23:11;;;;;;;11.80;4.10;;;;;;;0.92;100.00;101547.66;102122;1311;59508;-65
2021/12/18 01:25:59;;;;;;;10.00;4.00;;;;;;;0.97;100.00;101543.55;102384;1311;59905;-66
2021/12/18 01:28:47;;;;;;;10.70;4.20;;;;;;;1.04;100.00;101550.29;102252;1316;72540;-65
2021/12/18 01:31:34;;;;;;;10.90;3.50;;;;;;;1.10;100.00;101546.88;102175;1315;69106;-65
2021/12/18 01:34:21;;;;;;;8.90;3.50;;;;;;;1.15;100.00;101552.92;102313;1313;72956;-66
2021/12/18 01:37:09;;;;;;;10.50;3.60;;;;;;;1.19;100.00;101554.44;102215;1310;59405;-65
2021/12/18 01:39:57;;;;;;;10.50;3.90;;;;;;;1.22;100.00;101546.86;102334;1313;59860;-65
2021/12/18 01:52:18;;;;;;;9.30;4.10;;;;;;;1.32;100.00;101523.80;102694;1317;59335;-65
2021/12/18 01:55:09;;;;;;;8.30;3.10;;;;;;;1.33;100.00;101523.78;101663;1317;1002994;-65
2021/12/18 01:58:00;;;;;;;11.10;3.70;;;;;;;1.33;100.00;101522.03;102742;1314;71840;-65
2021/12/18 02:00:50;;;;;;;11.30;3.80;;;;;;;1.33;100.00;101525.70;102658;1310;66627;-65
2021/12/18 02:03:38;;;;;;;10.70;4.30;;;;;;;1.33;100.00;101522.05;102191;1309;71052;-65
2021/12/18 02:06:25;;;;;;;10.10;3.20;;;;;;;1.35;100.00;101521.66;102211;1310;59428;-65
2021/12/18 02:09:13;;;;;;;11.80;4.50;;;;;;;1.37;100.00;101514.63;102482;1310;59316;-65
2021/12/18 02:12:01;;;;;;;8.90;3.60;;;;;;;1.39;100.00;101515.66;101672;1311;1003648;-65
2021/12/18 02:21:11;;;;;;;21.20;8.60;;;;;;;1.41;100.00;101506.70;102535;1314;59447;-65
2021/12/18 02:24:00;;;;;;;14.50;7.00;;;;;;;1.44;100.00;101500.89;102478;1310;59316;-65
2021/12/18 02:26:48;;;;;;;12.20;4.60;;;;;;;1.46;100.00;101498.91;102503;1311;70386;-65
2021/12/18 02:29:38;;;;;;;9.60;3.80;;;;;;;1.49;100.00;101488.38;101842;1311;1003805;-65
2021/12/18 02:32:26;;;;;;;10.30;4.10;;;;;;;1.50;100.00;101481.52;102388;1310;71368;-65
2021/12/18 02:35:28;;;;;;;11.50;4.40;;;;;;;1.52;100.00;101477.48;102142;1313;59183;-65
2021/12/18 02:41:39;;;;;;;15.80;5.70;;;;;;;1.52;100.00;101463.48;102277;1313;71115;-65
2021/12/18 02:44:27;;;;;;;11.80;5.30;;;;;;;1.54;100.00;101464.14;102289;1316;66201;-65
2021/12/18 02:47:16;;;;;;;11.90;4.80;;;;;;;1.55;100.00;101459.39;102301;1317;71454;-65
2021/12/18 02:50:04;;;;;;;13.50;4.50;;;;;;;1.57;100.00;101458.66;102385;1317;59332;-65
2021/12/18 02:52:51;;;;;;;12.70;4.70;;;;;;;1.58;100.00;101458.13;102455;1314;59405;-65
2021/12/18 02:55:39;;;;;;;13.30;5.20;;;;;;;1.60;100.00;101453.89;102533;1310;71113;-65
2021/12/18 02:58:27;;;;;;;13.70;5.50;;;;;;;1.63;100.00;101455.39;102480;1311;66739;-65
2021/12/18 03:01:20;;;;;;;15.40;5.10;;;;;;;1.65;100.00;101454.84;102490;1311;71429;-65
2021/12/18 03:04:28;;;;;;;14.50;5.10;;;;;;;1.68;100.00;101454.97;102462;1310;59356;-65
2021/12/18 03:07:19;;;;;;;15.60;6.20;;;;;;;1.69;100.00;101451.27;102479;1312;59318;-65
2021/12/18 03:25:30;;;;;;;15.60;6.50;;;;;;;1.83;100.00;101444.02;102323;1314;71692;-65
2021/12/18 03:28:20;;;;;;;16.80;6.30;;;;;;;1.86;100.00;101446.92;102388;1311;66960;-65
2021/12/18 03:31:08;;;;;;;18.80;6.10;;;;;;;1.90;100.00;101444.23;102426;1310;71435;-65
2021/12/18 03:33:56;;;;;;;13.70;5.40;;;;;;;1.90;100.00;101436.52;102446;1317;59375;-65
2021/12/18 03:36:45;;;;;;;18.30;6.00;;;;;;;1.90;100.00;101421.83;102203;1311;59655;-65
2021/12/18 03:39:33;;;;;;;18.80;6.80;;;;;;;1.89;100.00;101415.89;102664;1318;71366;-65
2021/12/18 03:42:21;;;;;;;16.30;6.50;;;;;;;1.88;100.00;101415.76;102760;1314;66746;-65
2021/12/18 03:45:10;;;;;;;17.50;6.50;;;;;;;1.85;100.00;101409.83;102607;1317;70506;-65
2021/12/18 03:47:58;;;;;;;17.30;6.30;;;;;;;1.87;100.00;101408.92;102465;1314;59318;-66
2021/12/18 03:50:47;;;;;;;14.20;6.20;;;;;;;1.86;100.00;101406.48;102228;1316;59396;-65
2021/12/18 03:53:34;;;;;;;13.60;5.50;;;;;;;1.83;100.00;101403.93;102150;1317;71060;-65
2021/12/18 03:56:22;;;;;;;14.40;6.20;;;;;;;1.79;100.00;101407.51;102798;1313;66739;-65
2021/12/18 03:59:11;;;;;;;18.00;6.80;;;;;;;1.78;100.00;101405.79;102360;1317;72993;-64
2021/12/18 04:01:59;;;;;;;20.20;7.00;;;;;;;1.77;100.00;101402.30;102238;1318;59412;-65
2021/12/18 04:04:48;;;;;;;13.90;6.00;;;;;;;1.78;100.00;101403.50;102198;1313;59598;-65
2021/12/18 04:07:42;;;;;;;15.40;5.80;;;;;;;1.78;100.00;101408.23;102403;1314;71211;-65
2021/12/18 04:10:30;;;;;;;12.50;6.40;;;;;;;1.77;100.00;101418.75;102250;1316;68507;-65
2021/12/18 04:13:17;;;;;;;13.90;6.40;;;;;;;1.76;100.00;101418.25;102623;1318;71889;-65
2021/12/18 04:16:05;;;;;;;15.70;6.90;;;;;;;1.79;100.00;101407.00;102387;1317;59327;-65
2021/12/18 04:18:53;;;;;;;16.10;6.30;;;;;;;1.82;100.00;101409.55;102273;1317;59618;-65
2021/12/18 04:21:41;;;;;;;13.70;5.70;;;;;;;1.85;100.00;101398.63;102452;1310;72349;-65
2021/12/18 04:24:30;;;;;;;15.20;6.30;;;;;;;1.86;100.00;101396.86;102894;1311;66821;-66
2021/12/18 04:27:17;;;;;;;17.60;7.50;;;;;;;1.86;100.00;101394.94;102716;1311;73101;-65
2021/12/18 04:30:07;;;;;;;16.30;5.50;;;;;;;1.89;100.00;101392.96;102706;1316;59327;-65
2021/12/18 04:32:54;;;;;;;17.20;7.50;;;;;;;1.88;100.00;101388.09;102664;1316;59450;-65
2021/12/18 04:35:46;;;;;;;23.60;8.40;;;;;;;1.85;100.00;101388.14;102237;1314;71460;-65
2021/12/18 04:38:33;;;;;;;28.80;9.60;;;;;;;1.83;100.00;101384.85;102833;1310;68081;-66
2021/12/18 04:41:36;;;;;;;21.90;8.20;;;;;;;1.83;100.00;101384.16;102689;1314;73681;-66
2021/12/18 04:44:25;;;;;;;27.80;10.80;;;;;;;1.82;100.00;101384.88;102226;1313;59399;-65
2021/12/18 04:47:13;;;;;;;27.40;11.80;;;;;;;1.81;100.00;101384.35;102516;1313;60539;-65
2021/12/18 04:50:01;;;;;;;19.30;9.40;;;;;;;1.80;100.00;101381.23;102367;1316;72539;-66
2021/12/18 04:52:50;;;;;;;19.30;7.80;;;;;;;1.77;100.00;101379.20;102205;1311;68197;-65
2021/12/18 04:55:37;;;;;;;20.40;7.90;;;;;;;1.77;100.00;101375.00;102414;1310;73516;-65
2021/12/18 04:58:25;;;;;;;17.70;7.10;;;;;;;1.76;100.00;101365.21;102516;1314;59329;-65
2021/12/18 05:01:13;;;;;;;14.20;6.30;;;;;;;1.75;100.00;101356.67;102485;1314;59711;-66
2021/12/18 05:04:03;;;;;;;14.40;6.40;;;;;;;1.73;100.00;101352.52;102383;1313;72349;-65
2021/12/18 05:06:53;;;;;;;18.70;8.70;;;;;;;1.68;100.00;101342.97;102371;1314;68130;-65
2021/12/18 05:09:42;;;;;;;17.10;7.90;;;;;;;1.67;100.00;101341.77;102271;1311;73692;-65
2021/12/18 05:12:34;;;;;;;18.30;8.40;;;;;;;1.67;100.00;101332.50;102379;1309;61736;-66
2021/12/18 05:15:23;;;;;;;16.30;7.20;;;;;;;1.67;100.00;101322.54;102713;1314;60778;-66
2021/12/18 05:18:11;;;;;;;18.20;7.70;;;;;;;1.66;100.00;101317.98;102429;1312;72748;-65
2021/12/18 05:21:10;;;;;;;16.50;7.60;;;;;;;1.66;100.00;101321.51;102938;1314;68181;-66
2021/12/18 05:24:02;;;;;;;20.50;9.20;;;;;;;1.65;100.00;101319.42;103051;1310;73567;-65
2021/12/18 05:26:52;;;;;;;18.50;8.10;;;;;;;1.68;100.00;101309.56;102299;1310;59349;-66
2021/12/18 05:29:40;;;;;;;14.70;6.70;;;;;;;1.69;100.00;101309.38;102583;1311;60621;-65
2021/12/18 05:32:28;;;;;;;14.70;6.70;;;;;;;1.70;100.00;101305.66;102883;1314;72563;-66
2021/12/18 05:35:17;;;;;;;14.80;7.20;;;;;;;1.71;100.00;101305.64;102710;1311;68037;-65
2021/12/18 05:38:05;;;;;;;18.60;7.80;;;;;;;1.72;100.00;101298.80;102211;1314;1003462;-66
2021/12/18 05:40:56;;;;;;;17.60;7.70;;;;;;;1.73;100.00;101294.60;102579;1310;59428;-65
2021/12/18 05:43:44;;;;;;;19.50;9.10;;;;;;;1.75;100.00;101296.30;102801;1311;60375;-65
2021/12/18 05:46:35;;;;;;;13.30;6.90;;;;;;;1.78;100.00;101298.67;102859;1314;72595;-65
2021/12/18 05:49:24;;;;;;;13.70;6.70;;;;;;;1.81;100.00;101293.02;102529;1314;68172;-65
2021/12/18 05:52:11;;;;;;;14.90;7.00;;;;;;;1.82;100.00;101291.23;102339;1313;72997;-65
2021/12/18 05:55:00;;;;;;;16.80;7.70;;;;;;;1.84;100.00;101298.55;102589;1314;59212;-66
2021/12/18 05:57:57;;;;;;;16.00;7.20;;;;;;;1.85;100.00;101302.70;102295;1310;60525;-65
2021/12/18 06:01:08;;;;;;;14.90;7.30;;;;;;;1.89;100.00;101304.22;99891;1317;71704;-65
2021/12/18 06:04:02;;;;;;;11.20;5.30;;;;;;;1.91;100.00;101299.63;102547;1317;73358;-65
2021/12/18 06:07:03;;;;;;;12.30;5.40;;;;;;;1.92;100.00;101292.95;102590;1310;59896;-65
2021/12/18 06:10:03;;;;;;;14.20;6.50;;;;;;;1.91;100.00;101284.58;102541;1314;60787;-65
2021/12/18 06:12:57;;;;;;;13.10;6.60;;;;;;;1.92;100.00;101279.30;102627;1311;72639;-66
2021/12/18 06:15:45;;;;;;;11.60;5.80;;;;;;;1.92;100.00;101274.56;102511;1314;68397;-65
2021/12/18 06:18:36;;;;;;;13.70;6.20;;;;;;;1.94;100.00;101275.74;102448;1310;73048;-66
2021/12/18 06:21:24;;;;;;;13.80;6.60;;;;;;;1.93;100.00;101267.19;102579;1311;59382;-65
2021/12/18 06:24:12;;;;;;;13.40;6.70;;;;;;;1.92;100.00;101264.04;102288;1313;60667;-65
2021/12/18 06:27:01;;;;;;;12.40;5.90;;;;;;;1.93;100.00;101266.67;102384;1310;72825;-65
2021/12/18 06:29:52;;;;;;;13.50;5.70;;;;;;;1.94;100.00;101269.61;102588;1310;68952;-65
2021/12/18 06:32:46;;;;;;;13.80;4.90;;;;;;;1.97;100.00;101265.89;103339;1314;72951;-66
2021/12/18 06:35:51;;;;;;;11.40;4.70;;;;;;;1.98;100.00;101263.92;102519;1311;59942;-65
2021/12/18 06:38:40;;;;;;;10.70;4.80;;;;;;;1.97;100.00;101265.35;103038;1310;59288;-65
2021/12/18 06:41:34;;;;;;;12.90;5.60;;;;;;;1.98;100.00;101270.91;102685;1314;72605;-66
2021/12/18 06:44:22;;;;;;;9.00;4.00;;;;;;;2.00;100.00;101271.58;102356;1311;68179;-65
2021/12/18 06:47:10;;;;;;;11.30;4.80;;;;;;;2.01;100.00;101261.75;102824;1314;73047;-65
2021/12/18 06:50:07;;;;;;;12.60;5.30;;;;;;;2.03;100.00;101257.86;102486;1311;59384;-65
2021/12/18 06:52:56;;;;;;;10.60;4.60;;;;;;;2.06;100.00;101247.98;102906;1313;61290;-65
2021/12/18 06:55:47;;;;;;;11.50;5.40;;;;;;;2.09;100.00;101249.14;102484;1317;72618;-65
2021/12/18 06:58:34;;;;;;;17.90;5.60;;;;;;;2.12;100.00;101240.48;102305;1313;68599;-65
2021/12/18 07:01:22;;;;;;;14.90;5.40;;;;;;;2.13;100.00;101228.40;102311;1313;72905;-66
2021/12/18 07:04:10;;;;;;;11.00;4.70;;;;;;;2.14;100.00;101229.59;102485;1314;60136;-65
2021/12/18 07:06:57;;;;;;;9.60;3.60;;;;;;;2.16;100.00;101228.85;102339;1310;60568;-65
2021/12/18 07:09:45;;;;;;;9.80;4.40;;;;;;;2.19;100.00;101223.86;102547;1314;71573;-66
2021/12/18 07:12:33;;;;;;;9.70;3.90;;;;;;;2.20;100.00;101219.63;102601;1316;68911;-65
2021/12/18 07:15:20;;;;;;;11.40;5.60;;;;;;;2.22;100.00;101219.60;102518;1313;73104;-65
2021/12/18 07:18:07;;;;;;;13.00;6.40;;;;;;;2.25;100.00;101216.20;102182;1316;59946;-65
2021/12/18 07:20:55;;;;;;;13.30;5.40;;;;;;;2.28;100.00;101215.23;102282;1314;60706;-65
2021/12/18 07:23:42;;;;;;;15.00;6.20;;;;;;;2.31;100.00;101215.33;102692;1314;72556;-65
2021/12/18 07:26:32;;;;;;;11.30;4.80;;;;;;;2.35;100.00;101211.03;102541;1313;68300;-65
2021/12/18 07:29:20;;;;;;;13.10;6.10;;;;;;;2.38;100.00;101204.83;102729;1313;72973;-65
2021/12/18 07:32:09;;;;;;;15.10;6.20;;;;;;;2.42;100.00;101203.33;102351;1314;59927;-66
2021/12/18 07:35:14;;;;;;;14.10;5.50;;;;;;;2.45;100.00;101204.30;102524;1314;60572;-64
2021/12/18 07:38:01;;;;;;;14.00;5.80;;;;;;;2.48;100.00;101191.24;102564;1314;72590;-65
2021/12/18 07:40:49;;;;;;;13.90;5.40;;;;;;;2.53;100.00;101189.02;102620;1314;68200;-64
2021/12/18 07:43:36;;;;;;;13.00;5.70;;;;;;;2.57;100.00;101187.02;102733;1313;72969;-66
2021/12/18 07:46:25;;;;;;;11.60;4.90;;;;;;;2.59;100.00;101191.70;102296;1316;59824;-65
2021/12/18 07:49:13;;;;;;;14.00;5.70;;;;;;;2.61;100.00;101183.58;102316;1317;60888;-65
2021/12/18 07:52:03;;;;;;;12.20;5.00;;;;;;;2.63;100.00;101175.98;102325;1314;72510;-65
2021/12/18 07:54:52;;;;;;;13.10;5.70;;;;;;;2.65;100.00;101174.33;102644;1312;68891;-64
2021/12/18 07:57:40;;;;;;;13.90;5.80;;;;;;;2.67;100.00;101168.31;102734;1310;70967;-66
2021/12/18 08:00:28;;;;;;;15.70;5.50;;;;;;;2.70;100.00;101166.48;102676;1314;59962;-65
2021/12/18 08:03:17;;;;;;;13.30;5.20;;;;;;;2.77;100.00;101171.39;102795;1311;59514;-65
2021/12/18 08:06:04;;;;;;;14.90;5.60;;;;;;;2.82;100.00;101165.48;102550;1314;71727;-65
2021/12/18 08:08:52;;;;;;;11.90;5.00;;;;;;;2.87;100.00;101158.33;102299;1313;66117;-65
2021/12/18 08:11:40;;;;;;;12.70;5.10;;;;;;;2.90;100.00;101157.88;102726;1313;71499;-65
2021/12/18 08:14:28;;;;;;;12.30;5.30;;;;;;;2.95;100.00;101146.70;102610;1316;59295;-66
2021/12/18 08:17:16;;;;;;;12.30;5.50;;;;;;;2.99;100.00;101141.83;102386;1317;59559;-65
2021/12/18 08:20:08;;;;;;;11.00;4.50;;;;;;;3.03;100.00;101136.46;102165;1314;72759;-66
2021/12/18 08:22:56;;;;;;;13.10;5.60;;;;;;;3.06;100.00;101133.93;102875;1313;68010;-64
2021/12/18 08:25:44;;;;;;;14.10;6.10;;;;;;;3.07;100.00;101127.24;102510;1314;73321;-65
2021/12/18 08:28:31;;;;;;;11.40;4.70;;;;;;;3.08;100.00;101122.14;102485;1316;59212;-66
2021/12/18 08:31:19;;;;;;;12.70;5.00;;;;;;;3.10;100.00;101114.70;101787;1312;1003028;-66
2021/12/18 08:34:07;;;;;;;10.00;4.70;;;;;;;3.13;100.00;101104.80;102370;1316;70113;-66
2021/12/18 08:36:54;;;;;;;9.60;4.20;;;;;;;3.19;100.00;101095.33;102271;1314;68114;-66
2021/12/18 08:39:49;;;;;;;11.50;5.10;;;;;;;3.34;100.00;101091.35;102408;1310;72954;-65
2021/12/18 08:42:38;;;;;;;10.30;4.30;;;;;;;3.49;100.00;101091.59;102661;1316;59939;-66
2021/12/18 08:45:26;;;;;;;11.60;3.90;;;;;;;3.76;99.55;101086.13;102559;1310;59415;-67
2021/12/18 08:48:14;;;;;;;8.20;2.80;;;;;;;4.10;97.57;101096.96;102861;1314;71407;-68
2021/12/18 08:51:02;;;;;;;9.30;3.60;;;;;;;4.23;96.39;101108.98;102797;1310;66969;-67
2021/12/18 08:53:50;;;;;;;10.20;4.50;;;;;;;4.29;95.80;101113.49;102873;1311;72109;-66
2021/12/18 08:56:38;;;;;;;8.50;3.20;;;;;;;4.38;95.49;101111.10;102698;1313;59850;-65
2021/12/18 08:59:25;;;;;;;9.10;3.60;;;;;;;4.45;95.08;101112.79;102587;1314;59745;-65
2021/12/18 09:02:14;;;;;;;9.30;3.50;;;;;;;4.52;94.97;101115.68;102310;1313;71454;-65
2021/12/18 09:05:03;;;;;;;9.00;3.50;;;;;;;4.57;94.74;101121.68;102423;1313;67082;-66
2021/12/18 09:07:51;;;;;;;8.60;3.40;;;;;;;4.58;94.44;101125.14;101971;1313;71676;-66
2021/12/18 09:10:39;;;;;;;9.00;3.30;;;;;;;4.48;94.56;101125.31;102432;1314;59843;-66
2021/12/18 09:13:26;;;;;;;8.60;3.20;;;;;;;4.40;95.06;101127.52;102202;1316;59629;-65
2021/12/18 09:16:14;;;;;;;9.10;3.00;;;;;;;4.34;95.61;101126.33;102343;1313;71006;-65
2021/12/18 09:19:02;;;;;;;9.20;3.50;;;;;;;4.33;95.76;101118.48;102159;1311;67427;-66
2021/12/18 09:21:50;;;;;;;9.70;3.60;;;;;;;4.47;95.80;101113.76;102278;1313;71772;-66
2021/12/18 09:24:39;;;;;;;8.60;3.50;;;;;;;4.49;95.46;101101.92;101934;1314;59812;-66
2021/12/18 09:27:26;;;;;;;8.20;3.40;;;;;;;4.51;95.33;101086.20;102157;1314;60655;-66
2021/12/18 09:30:15;;;;;;;8.10;3.50;;;;;;;4.47;95.45;101088.81;100142;1316;1003708;-66
2021/12/18 09:33:03;;;;;;;10.10;3.20;;;;;;;4.43;95.47;101076.80;102868;1314;67010;-66
2021/12/18 09:35:51;;;;;;;9.30;3.80;;;;;;;4.50;95.64;101080.09;102525;1310;71674;-67
2021/12/18 09:38:39;;;;;;;8.30;3.00;;;;;;;4.61;95.54;101065.81;102125;1313;59449;-66
2021/12/18 09:41:27;;;;;;;8.50;3.00;;;;;;;4.64;95.37;101071.84;102326;1311;59469;-66
2021/12/18 09:44:22;;;;;;;8.20;3.20;;;;;;;4.58;95.14;101068.20;102485;1310;71595;-67
2021/12/18 09:47:09;;;;;;;8.20;3.30;;;;;;;4.54;95.70;101066.23;102371;1311;67631;-65
2021/12/18 09:49:58;;;;;;;10.20;3.50;;;;;;;4.49;95.71;101063.98;102596;1313;70452;-66
2021/12/18 09:52:46;;;;;;;9.80;3.50;;;;;;;4.41;96.18;101062.30;102686;1310;59431;-66
2021/12/18 09:55:35;;;;;;;8.60;3.40;;;;;;;4.38;96.51;101058.91;102644;1310;59643;-66
2021/12/18 09:58:22;;;;;;;8.30;3.70;;;;;;;4.34;96.65;101058.00;102356;1310;71366;-66
2021/12/18 10:01:10;;;;;;;9.40;3.50;;;;;;;4.35;96.90;101058.31;102673;1311;66015;-66
2021/12/18 10:04:00;;;;;;;9.40;4.20;;;;;;;4.35;96.90;101059.02;102198;1314;72036;-66
2021/12/18 10:06:49;;;;;;;7.90;3.00;;;;;;;4.30;97.22;101049.72;101874;1310;1002992;-66
2021/12/18 10:09:36;;;;;;;7.40;2.80;;;;;;;4.23;97.24;101054.17;102499;1314;60709;-66
2021/12/18 10:12:31;;;;;;;8.80;3.40;;;;;;;4.14;97.85;101044.12;102575;1311;72801;-66
2021/12/18 10:15:18;;;;;;;9.00;3.30;;;;;;;4.08;98.25;101036.22;102817;1311;68739;-66
2021/12/18 10:18:11;;;;;;;8.40;3.20;;;;;;;4.04;98.32;101034.43;102383;1311;72615;-67
2021/12/18 10:21:21;;;;;;;9.50;3.80;;;;;;;4.09;98.58;101034.79;102498;1311;59298;-66
2021/12/18 10:24:17;;;;;;;8.30;3.10;;;;;;;4.13;98.29;101034.17;102151;1313;60852;-66
2021/12/18 10:27:18;;;;;;;7.60;3.10;;;;;;;4.14;98.00;101029.73;102383;1310;72526;-66
2021/12/18 10:30:20;;;;;;;7.50;2.90;;;;;;;4.23;97.91;101023.58;102334;1314;66976;-66
2021/12/18 10:33:11;;;;;;;6.70;2.60;;;;;;;4.25;97.67;101014.18;102160;1314;73484;-66
2021/12/18 10:36:00;;;;;;;6.70;2.60;;;;;;;4.21;97.52;101019.27;102496;1311;59253;-66
2021/12/18 10:38:52;;;;;;;7.50;2.60;;;;;;;4.18;97.82;101021.15;102650;1317;60619;-66
2021/12/18 10:41:39;;;;;;;7.10;2.90;;;;;;;4.14;98.07;101013.73;102552;1316;72964;-66
2021/12/18 10:44:26;;;;;;;6.90;2.80;;;;;;;4.12;98.27;101007.84;102396;1310;68390;-66
2021/12/18 10:47:13;;;;;;;7.90;2.80;;;;;;;4.13;98.34;100997.25;102109;1310;73315;-66
2021/12/18 10:50:01;;;;;;;8.70;4.20;;;;;;;4.16;98.51;100990.32;102149;1314;59413;-65
2021/12/18 10:52:55;;;;;;;8.70;3.30;;;;;;;4.20;98.42;100986.14;102182;1317;59796;-65
2021/12/18 10:56:01;;;;;;;7.90;2.90;;;;;;;4.38;98.24;100976.13;102512;1310;72709;-66
2021/12/18 10:58:49;;;;;;;6.70;2.70;;;;;;;4.62;96.67;100975.05;102001;1313;67303;-67
2021/12/18 11:01:37;;;;;;;7.90;3.40;;;;;;;4.79;95.85;100969.31;102488;1311;73538;-66
2021/12/18 11:04:33;;;;;;;7.60;3.20;;;;;;;5.27;94.20;100969.33;101973;1311;60277;-66
2021/12/18 11:07:30;;;;;;;6.80;2.80;;;;;;;5.98;90.50;100959.29;102455;1311;60488;-66
2021/12/18 11:13:38;;;;;;;7.70;2.80;;;;;;;6.22;88.85;100963.86;102571;1310;73140;-66
2021/12/18 11:13:53;;;;;;;7.60;3.20;;;;;;;6.65;86.55;100952.91;102678;1316;69059;-66
2021/12/18 11:16:47;;;;;;;8.90;3.40;;;;;;;6.64;84.96;100957.20;102860;1314;71732;-66
2021/12/18 11:19:36;;;;;;;8.40;3.10;;;;;;;6.63;85.17;100957.95;102469;1316;59311;-66
2021/12/18 11:22:23;;;;;;;7.80;2.80;;;;;;;6.51;85.88;100956.91;102542;1314;60587;-66
2021/12/18 11:25:12;;;;;;;7.40;3.00;;;;;;;6.34;86.05;100955.06;103055;1310;72397;-66
2021/12/18 11:28:00;;;;;;;7.70;3.20;;;;;;;6.17;87.01;100954.61;102567;1316;68862;-66
2021/12/18 11:30:50;;;;;;;6.90;2.30;;;;;;;6.14;87.09;100953.85;102793;1311;72954;-66
2021/12/18 11:33:39;;;;;;;7.90;3.20;;;;;;;6.11;87.61;100950.77;102481;1310;59317;-67
2021/12/18 11:36:28;;;;;;;9.00;3.30;;;;;;;6.09;87.87;100951.08;102396;1311;60592;-66
2021/12/18 11:39:20;;;;;;;8.00;3.40;;;;;;;6.03;88.03;100947.27;102295;1311;73056;-66
2021/12/18 11:42:08;;;;;;;8.10;3.10;;;;;;;5.96;88.09;100944.72;102500;1310;68357;-65
2021/12/18 11:44:58;;;;;;;7.50;3.20;;;;;;;5.97;88.61;100942.58;102435;1313;71985;-66
2021/12/18 11:47:59;;;;;;;7.40;2.90;;;;;;;6.03;88.37;100936.73;102743;1314;59321;-66
2021/12/18 11:50:48;;;;;;;7.60;3.00;;;;;;;6.02;88.41;100942.02;102873;1310;59343;-67
2021/12/18 11:53:36;;;;;;;7.90;3.50;;;;;;;5.96;88.35;100936.80;102246;1310;71252;-66
2021/12/18 11:56:25;;;;;;;8.50;3.80;;;;;;;5.96;88.65;100939.09;102175;1314;67028;-67
2021/12/18 11:59:14;;;;;;;7.10;2.80;;;;;;;5.98;89.01;100941.31;102382;1310;71558;-66
2021/12/18 12:02:02;;;;;;;7.50;3.00;;;;;;;6.00;88.77;100939.14;102658;1311;59438;-67
2021/12/18 12:05:05;;;;;;;8.20;3.40;;;;;;;5.97;88.64;100939.60;102640;1310;61253;-66
2021/12/18 12:08:21;;;;;;;8.90;3.30;;;;;;;5.91;88.77;100924.01;102453;1311;72608;-66
2021/12/18 12:11:26;;;;;;;8.60;3.30;;;;;;;5.80;89.04;100916.73;101614;1313;1003697;-66
2021/12/18 12:14:13;;;;;;;8.40;3.70;;;;;;;5.63;90.05;100909.91;102367;1310;73032;-67
2021/12/18 12:17:08;;;;;;;9.20;3.50;;;;;;;5.54;90.60;100911.73;102493;1309;59844;-66
2021/12/18 12:20:05;;;;;;;9.60;3.50;;;;;;;5.52;91.04;100905.42;102378;1313;59343;-66
2021/12/18 12:23:01;;;;;;;8.10;3.40;;;;;;;5.51;90.79;100900.91;102290;1309;71463;-66
2021/12/18 12:25:51;;;;;;;8.20;3.30;;;;;;;5.39;91.28;100897.19;102760;1314;67230;-66
2021/12/18 12:28:53;;;;;;;7.20;2.70;;;;;;;5.30;91.88;100900.55;102340;1310;73146;-66
2021/12/18 12:32:07;;;;;;;8.30;3.00;;;;;;;5.18;92.17;100907.41;102583;1310;59399;-65
2021/12/18 12:35:10;;;;;;;8.40;3.10;;;;;;;5.08;92.90;100905.15;102259;1310;60628;-66
2021/12/18 12:37:59;;;;;;;10.10;3.40;;;;;;;5.04;93.20;100902.02;102491;1310;72494;-67
2021/12/18 12:40:48;;;;;;;7.60;2.60;;;;;;;5.01;93.49;100891.92;102331;1311;68299;-65
2021/12/18 12:43:40;;;;;;;6.80;3.00;;;;;;;4.96;93.85;100887.91;102304;1310;72842;-66
2021/12/18 12:46:32;;;;;;;7.30;2.90;;;;;;;4.93;93.87;100888.89;102424;1311;59353;-66
2021/12/18 12:49:22;;;;;;;7.80;2.90;;;;;;;4.95;93.84;100883.20;102448;1311;61144;-66
2021/12/18 12:52:17;;;;;;;8.70;3.30;;;;;;;4.96;93.68;100878.23;102426;1311;74100;-65
2021/12/18 12:55:15;;;;;;;7.30;2.80;;;;;;;4.92;93.96;100877.71;102795;1311;68578;-66
2021/12/18 12:58:04;;;;;;;7.80;2.90;;;;;;;4.89;93.94;100867.11;102190;1310;72953;-66
2021/12/18 13:01:01;;;;;;;8.00;3.20;;;;;;;4.87;94.14;100872.13;102522;1311;59521;-66
2021/12/18 13:03:49;;;;;;;8.80;2.60;;;;;;;4.82;94.14;100863.02;102205;1310;59593;-66
2021/12/18 13:06:38;;;;;;;7.00;2.90;;;;;;;4.77;94.24;100866.52;102349;1310;72661;-66
2021/12/18 13:09:25;;;;;;;12.60;3.00;;;;;;;4.75;94.56;100859.95;102331;1311;66893;-65
2021/12/18 13:12:14;;;;;;;6.80;2.20;;;;;;;4.67;94.87;100863.24;102521;1311;72710;-66
2021/12/18 13:15:02;;;;;;;7.80;2.90;;;;;;;4.61;95.46;100857.52;102657;1310;59330;-65
2021/12/18 13:18:10;;;;;;;7.70;3.10;;;;;;;4.54;95.78;100857.77;102388;1311;60666;-67
2021/12/18 13:21:10;;;;;;;7.40;2.90;;;;;;;4.46;96.33;100858.98;102207;1311;72951;-65
2021/12/18 13:24:09;;;;;;;7.30;3.10;;;;;;;4.38;96.93;100847.48;102244;1310;67946;-66
2021/12/18 13:26:57;;;;;;;8.00;3.00;;;;;;;4.36;97.36;100850.25;102236;1304;70590;-66
2021/12/18 13:29:45;;;;;;;6.90;2.60;;;;;;;4.34;97.41;100844.84;102604;1310;59346;-66
2021/12/18 13:32:34;;;;;;;7.10;2.80;;;;;;;4.31;97.80;100844.27;102375;1311;60547;-66
2021/12/18 13:35:25;;;;;;;7.70;2.50;;;;;;;4.28;98.21;100838.61;102652;1310;73107;-65
2021/12/18 13:38:15;;;;;;;6.90;2.90;;;;;;;4.27;98.24;100838.10;102279;1310;68242;-66
2021/12/18 13:41:10;;;;;;;8.30;3.00;;;;;;;4.24;98.41;100836.28;102612;1314;73074;-66
2021/12/18 13:43:58;;;;;;;7.90;3.20;;;;;;;4.22;98.54;100831.08;102488;1314;60026;-66
2021/12/18 13:46:48;;;;;;;8.40;3.70;;;;;;;4.20;98.90;100828.01;102772;1311;60660;-66
2021/12/18 13:49:36;;;;;;;8.10;3.30;;;;;;;4.19;99.14;100824.38;102500;1310;73208;-66